sensor_id;sensor_type;location;lat;lon;timestamp;P1;durP1;ratioP1;P2;durP2;ratioP2
83842;SDS011;73869;52.336;21.182;2023-11-21T00:02:17;1.42;;;1.40;;
83842;SDS011;73869;52.336;21.182;2023-11-21T00:04:44;1.20;;;1.20;;
83842;SDS011;73869;52.336;21.182;2023-11-21T00:07:12;1.25;;;1.25;;
83842;SDS011;73869;52.336;21.182;2023-11-21T00:09:39;1.35;;;1.35;;
83842;SDS011;73869;52.336;21.182;2023-11-21T00:12:06;1.65;;;1.55;;
83842;SDS011;73869;52.336;21.182;2023-11-21T00:14:35;1.70;;;1.60;;
83842;SDS011;73869;52.336;21.182;2023-11-21T00:17:02;1.50;;;1.40;;
83842;SDS011;73869;52.336;21.182;2023-11-21T00:19:30;1.40;;;1.40;;
83842;SDS011;73869;52.336;21.182;2023-11-21T00:21:57;1.27;;;1.27;;
83842;SDS011;73869;52.336;21.182;2023-11-21T00:24:25;1.30;;;1.30;;
83842;SDS011;73869;52.336;21.182;2023-11-21T00:26:51;1.60;;;1.50;;
83842;SDS011;73869;52.336;21.182;2023-11-21T00:29:18;1.38;;;1.38;;
83842;SDS011;73869;52.336;21.182;2023-11-21T00:31:45;1.50;;;1.50;;
83842;SDS011;73869;52.336;21.182;2023-11-21T00:34:12;1.45;;;1.45;;
83842;SDS011;73869;52.336;21.182;2023-11-21T00:36:40;1.50;;;1.40;;
83842;SDS011;73869;52.336;21.182;2023-11-21T00:39:07;1.50;;;1.40;;
83842;SDS011;73869;52.336;21.182;2023-11-21T00:41:34;1.40;;;1.40;;
83842;SDS011;73869;52.336;21.182;2023-11-21T00:44:01;1.55;;;1.45;;
83842;SDS011;73869;52.336;21.182;2023-11-21T00:46:28;1.10;;;1.10;;
83842;SDS011;73869;52.336;21.182;2023-11-21T00:48:55;1.15;;;1.15;;
83842;SDS011;73869;52.336;21.182;2023-11-21T00:51:22;1.25;;;1.25;;
83842;SDS011;73869;52.336;21.182;2023-11-21T00:53:51;1.30;;;1.30;;
83842;SDS011;73869;52.336;21.182;2023-11-21T00:56:18;1.75;;;1.38;;
83842;SDS011;73869;52.336;21.182;2023-11-21T00:58:45;1.23;;;1.23;;
83842;SDS011;73869;52.336;21.182;2023-11-21T01:01:15;1.38;;;1.38;;
83842;SDS011;73869;52.336;21.182;2023-11-21T01:03:42;1.30;;;1.30;;
83842;SDS011;73869;52.336;21.182;2023-11-21T01:06:09;1.40;;;1.40;;
83842;SDS011;73869;52.336;21.182;2023-11-21T01:08:36;1.70;;;1.60;;
83842;SDS011;73869;52.336;21.182;2023-11-21T01:11:04;1.70;;;1.60;;
83842;SDS011;73869;52.336;21.182;2023-11-21T01:13:33;1.67;;;1.58;;
83842;SDS011;73869;52.336;21.182;2023-11-21T01:16:01;1.40;;;1.30;;
83842;SDS011;73869;52.336;21.182;2023-11-21T01:18:28;1.70;;;1.60;;
83842;SDS011;73869;52.336;21.182;2023-11-21T01:20:54;1.80;;;1.70;;
83842;SDS011;73869;52.336;21.182;2023-11-21T01:23:21;1.50;;;1.40;;
83842;SDS011;73869;52.336;21.182;2023-11-21T01:25:48;1.80;;;1.70;;
83842;SDS011;73869;52.336;21.182;2023-11-21T01:28:18;1.50;;;1.40;;
83842;SDS011;73869;52.336;21.182;2023-11-21T01:30:45;1.60;;;1.50;;
83842;SDS011;73869;52.336;21.182;2023-11-21T01:33:12;1.70;;;1.60;;
83842;SDS011;73869;52.336;21.182;2023-11-21T01:35:41;1.70;;;1.60;;
83842;SDS011;73869;52.336;21.182;2023-11-21T01:38:07;1.63;;;1.52;;
83842;SDS011;73869;52.336;21.182;2023-11-21T01:40:34;1.50;;;1.40;;
83842;SDS011;73869;52.336;21.182;2023-11-21T01:43:01;1.10;;;1.10;;
83842;SDS011;73869;52.336;21.182;2023-11-21T01:45:30;1.20;;;1.20;;
83842;SDS011;73869;52.336;21.182;2023-11-21T01:47:59;1.10;;;1.10;;
83842;SDS011;73869;52.336;21.182;2023-11-21T01:50:26;1.23;;;1.23;;
83842;SDS011;73869;52.336;21.182;2023-11-21T01:52:54;1.25;;;1.25;;
83842;SDS011;73869;52.336;21.182;2023-11-21T01:55:22;1.35;;;1.35;;
83842;SDS011;73869;52.336;21.182;2023-11-21T01:57:49;1.27;;;1.27;;
83842;SDS011;73869;52.336;21.182;2023-11-21T02:00:16;1.38;;;1.30;;
83842;SDS011;73869;52.336;21.182;2023-11-21T02:02:46;1.30;;;1.30;;
83842;SDS011;73869;52.336;21.182;2023-11-21T02:05:14;1.35;;;1.30;;
83842;SDS011;73869;52.336;21.182;2023-11-21T02:07:42;1.30;;;1.30;;
83842;SDS011;73869;52.336;21.182;2023-11-21T02:10:09;1.20;;;1.10;;
83842;SDS011;73869;52.336;21.182;2023-11-21T02:12:39;1.02;;;1.02;;
83842;SDS011;73869;52.336;21.182;2023-11-21T02:15:08;1.45;;;1.40;;
83842;SDS011;73869;52.336;21.182;2023-11-21T02:17:40;1.17;;;1.17;;
83842;SDS011;73869;52.336;21.182;2023-11-21T02:20:10;1.30;;;1.30;;
83842;SDS011;73869;52.336;21.182;2023-11-21T02:22:41;1.15;;;1.15;;
83842;SDS011;73869;52.336;21.182;2023-11-21T02:25:10;1.25;;;1.25;;
83842;SDS011;73869;52.336;21.182;2023-11-21T02:27:37;1.45;;;1.38;;
83842;SDS011;73869;52.336;21.182;2023-11-21T02:30:04;1.50;;;1.42;;
83842;SDS011;73869;52.336;21.182;2023-11-21T02:32:33;1.27;;;1.27;;
83842;SDS011;73869;52.336;21.182;2023-11-21T02:35:00;1.55;;;1.48;;
83842;SDS011;73869;52.336;21.182;2023-11-21T02:37:27;1.25;;;1.25;;
83842;SDS011;73869;52.336;21.182;2023-11-21T02:39:54;1.25;;;1.25;;
83842;SDS011;73869;52.336;21.182;2023-11-21T02:42:22;1.30;;;1.30;;
83842;SDS011;73869;52.336;21.182;2023-11-21T02:44:49;1.35;;;1.30;;
83842;SDS011;73869;52.336;21.182;2023-11-21T02:47:16;1.10;;;1.10;;
83842;SDS011;73869;52.336;21.182;2023-11-21T02:49:43;1.10;;;1.10;;
83842;SDS011;73869;52.336;21.182;2023-11-21T02:52:09;1.00;;;1.00;;
83842;SDS011;73869;52.336;21.182;2023-11-21T02:54:36;1.00;;;1.00;;
83842;SDS011;73869;52.336;21.182;2023-11-21T02:57:03;1.30;;;1.30;;
83842;SDS011;73869;52.336;21.182;2023-11-21T02:59:32;1.15;;;1.13;;
83842;SDS011;73869;52.336;21.182;2023-11-21T03:02:00;1.13;;;1.13;;
83842;SDS011;73869;52.336;21.182;2023-11-21T03:04:26;1.10;;;1.10;;
83842;SDS011;73869;52.336;21.182;2023-11-21T03:06:53;1.20;;;1.20;;
83842;SDS011;73869;52.336;21.182;2023-11-21T03:09:20;1.05;;;1.05;;
83842;SDS011;73869;52.336;21.182;2023-11-21T03:11:47;0.90;;;0.90;;
83842;SDS011;73869;52.336;21.182;2023-11-21T03:14:14;1.20;;;1.20;;
83842;SDS011;73869;52.336;21.182;2023-11-21T03:16:42;1.00;;;1.00;;
83842;SDS011;73869;52.336;21.182;2023-11-21T03:19:10;1.10;;;1.10;;
83842;SDS011;73869;52.336;21.182;2023-11-21T03:21:37;1.17;;;1.17;;
83842;SDS011;73869;52.336;21.182;2023-11-21T03:24:04;1.27;;;1.27;;
83842;SDS011;73869;52.336;21.182;2023-11-21T03:26:32;1.20;;;1.20;;
83842;SDS011;73869;52.336;21.182;2023-11-21T03:28:59;1.10;;;1.10;;
83842;SDS011;73869;52.336;21.182;2023-11-21T03:31:26;1.10;;;1.10;;
83842;SDS011;73869;52.336;21.182;2023-11-21T03:33:55;1.33;;;1.33;;
83842;SDS011;73869;52.336;21.182;2023-11-21T03:36:21;1.10;;;1.10;;
83842;SDS011;73869;52.336;21.182;2023-11-21T03:38:52;1.17;;;1.17;;
83842;SDS011;73869;52.336;21.182;2023-11-21T03:41:19;0.98;;;0.98;;
83842;SDS011;73869;52.336;21.182;2023-11-21T03:43:45;1.30;;;1.30;;
83842;SDS011;73869;52.336;21.182;2023-11-21T03:46:13;1.13;;;1.13;;
83842;SDS011;73869;52.336;21.182;2023-11-21T03:48:41;1.20;;;1.20;;
83842;SDS011;73869;52.336;21.182;2023-11-21T03:51:09;1.20;;;1.20;;
83842;SDS011;73869;52.336;21.182;2023-11-21T03:53:36;1.10;;;1.10;;
83842;SDS011;73869;52.336;21.182;2023-11-21T03:56:03;1.00;;;1.00;;
83842;SDS011;73869;52.336;21.182;2023-11-21T03:58:32;1.10;;;1.10;;
83842;SDS011;73869;52.336;21.182;2023-11-21T04:00:59;1.27;;;1.27;;
83842;SDS011;73869;52.336;21.182;2023-11-21T04:03:26;1.05;;;1.05;;
83842;SDS011;73869;52.336;21.182;2023-11-21T04:05:53;1.10;;;1.10;;
83842;SDS011;73869;52.336;21.182;2023-11-21T04:08:21;1.08;;;1.08;;
83842;SDS011;73869;52.336;21.182;2023-11-21T04:10:48;1.13;;;1.13;;
83842;SDS011;73869;52.336;21.182;2023-11-21T04:13:15;1.05;;;1.05;;
83842;SDS011;73869;52.336;21.182;2023-11-21T04:15:41;1.10;;;1.10;;
83842;SDS011;73869;52.336;21.182;2023-11-21T04:18:08;1.10;;;1.10;;
83842;SDS011;73869;52.336;21.182;2023-11-21T04:20:35;1.20;;;1.20;;
83842;SDS011;73869;52.336;21.182;2023-11-21T04:23:02;0.73;;;0.73;;
83842;SDS011;73869;52.336;21.182;2023-11-21T04:25:31;1.10;;;1.10;;
83842;SDS011;73869;52.336;21.182;2023-11-21T04:27:57;0.90;;;0.90;;
83842;SDS011;73869;52.336;21.182;2023-11-21T04:30:24;0.90;;;0.90;;
83842;SDS011;73869;52.336;21.182;2023-11-21T04:32:51;1.15;;;1.15;;
83842;SDS011;73869;52.336;21.182;2023-11-21T04:35:18;1.08;;;1.08;;
83842;SDS011;73869;52.336;21.182;2023-11-21T04:37:45;0.93;;;0.93;;
83842;SDS011;73869;52.336;21.182;2023-11-21T04:40:12;1.00;;;1.00;;
83842;SDS011;73869;52.336;21.182;2023-11-21T04:42:41;0.90;;;0.90;;
83842;SDS011;73869;52.336;21.182;2023-11-21T04:45:08;0.80;;;0.80;;
83842;SDS011;73869;52.336;21.182;2023-11-21T04:47:36;0.80;;;0.80;;
83842;SDS011;73869;52.336;21.182;2023-11-21T04:50:04;1.00;;;1.00;;
83842;SDS011;73869;52.336;21.182;2023-11-21T04:52:32;0.82;;;0.82;;
83842;SDS011;73869;52.336;21.182;2023-11-21T04:54:59;0.90;;;0.90;;
83842;SDS011;73869;52.336;21.182;2023-11-21T04:57:26;0.80;;;0.80;;
83842;SDS011;73869;52.336;21.182;2023-11-21T04:59:56;0.93;;;0.93;;
83842;SDS011;73869;52.336;21.182;2023-11-21T05:02:22;0.90;;;0.90;;
83842;SDS011;73869;52.336;21.182;2023-11-21T05:04:49;1.10;;;1.10;;
83842;SDS011;73869;52.336;21.182;2023-11-21T05:07:16;1.15;;;1.15;;
83842;SDS011;73869;52.336;21.182;2023-11-21T05:09:43;1.05;;;1.05;;
83842;SDS011;73869;52.336;21.182;2023-11-21T05:12:11;1.20;;;1.20;;
83842;SDS011;73869;52.336;21.182;2023-11-21T05:14:38;0.77;;;0.77;;
83842;SDS011;73869;52.336;21.182;2023-11-21T05:17:10;1.10;;;1.10;;
83842;SDS011;73869;52.336;21.182;2023-11-21T05:19:36;1.10;;;1.10;;
83842;SDS011;73869;52.336;21.182;2023-11-21T05:22:04;1.13;;;1.13;;
83842;SDS011;73869;52.336;21.182;2023-11-21T05:24:31;1.15;;;1.15;;
83842;SDS011;73869;52.336;21.182;2023-11-21T05:26:58;0.95;;;0.95;;
83842;SDS011;73869;52.336;21.182;2023-11-21T05:29:25;0.90;;;0.90;;
83842;SDS011;73869;52.336;21.182;2023-11-21T05:31:52;1.10;;;1.10;;
83842;SDS011;73869;52.336;21.182;2023-11-21T05:34:20;1.00;;;1.00;;
83842;SDS011;73869;52.336;21.182;2023-11-21T05:36:49;1.13;;;1.13;;
83842;SDS011;73869;52.336;21.182;2023-11-21T05:39:16;1.23;;;1.23;;
83842;SDS011;73869;52.336;21.182;2023-11-21T05:41:44;1.20;;;1.20;;
83842;SDS011;73869;52.336;21.182;2023-11-21T05:44:10;1.13;;;1.13;;
83842;SDS011;73869;52.336;21.182;2023-11-21T05:46:39;1.08;;;1.08;;
83842;SDS011;73869;52.336;21.182;2023-11-21T05:49:08;0.90;;;0.90;;
83842;SDS011;73869;52.336;21.182;2023-11-21T05:51:36;0.90;;;0.90;;
83842;SDS011;73869;52.336;21.182;2023-11-21T05:54:04;1.17;;;1.17;;
83842;SDS011;73869;52.336;21.182;2023-11-21T05:56:31;1.30;;;1.30;;
83842;SDS011;73869;52.336;21.182;2023-11-21T05:58:58;1.10;;;1.10;;
83842;SDS011;73869;52.336;21.182;2023-11-21T06:01:25;1.02;;;1.02;;
83842;SDS011;73869;52.336;21.182;2023-11-21T06:03:53;1.20;;;1.20;;
83842;SDS011;73869;52.336;21.182;2023-11-21T06:06:20;1.13;;;1.13;;
83842;SDS011;73869;52.336;21.182;2023-11-21T06:08:49;1.10;;;1.10;;
83842;SDS011;73869;52.336;21.182;2023-11-21T06:11:15;1.10;;;1.10;;
83842;SDS011;73869;52.336;21.182;2023-11-21T06:13:43;1.13;;;1.13;;
83842;SDS011;73869;52.336;21.182;2023-11-21T06:16:10;1.50;;;1.40;;
83842;SDS011;73869;52.336;21.182;2023-11-21T06:18:38;1.50;;;1.50;;
83842;SDS011;73869;52.336;21.182;2023-11-21T06:21:05;1.70;;;1.60;;
83842;SDS011;73869;52.336;21.182;2023-11-21T06:23:36;1.30;;;1.30;;
83842;SDS011;73869;52.336;21.182;2023-11-21T06:26:04;1.60;;;1.50;;
83842;SDS011;73869;52.336;21.182;2023-11-21T06:28:31;1.45;;;1.40;;
83842;SDS011;73869;52.336;21.182;2023-11-21T06:30:58;1.50;;;1.40;;
83842;SDS011;73869;52.336;21.182;2023-11-21T06:33:30;1.40;;;1.40;;
83842;SDS011;73869;52.336;21.182;2023-11-21T06:35:56;1.40;;;1.40;;
83842;SDS011;73869;52.336;21.182;2023-11-21T06:38:23;1.40;;;1.30;;
83842;SDS011;73869;52.336;21.182;2023-11-21T06:40:53;1.23;;;1.23;;
83842;SDS011;73869;52.336;21.182;2023-11-21T06:43:22;1.20;;;1.20;;
83842;SDS011;73869;52.336;21.182;2023-11-21T06:45:48;1.48;;;1.38;;
83842;SDS011;73869;52.336;21.182;2023-11-21T06:48:15;1.70;;;1.60;;
83842;SDS011;73869;52.336;21.182;2023-11-21T06:50:42;1.42;;;1.38;;
83842;SDS011;73869;52.336;21.182;2023-11-21T06:53:09;1.45;;;1.40;;
83842;SDS011;73869;52.336;21.182;2023-11-21T06:55:36;1.50;;;1.40;;
83842;SDS011;73869;52.336;21.182;2023-11-21T06:58:03;1.70;;;1.60;;
83842;SDS011;73869;52.336;21.182;2023-11-21T07:00:32;1.75;;;1.65;;
83842;SDS011;73869;52.336;21.182;2023-11-21T07:02:59;1.75;;;1.65;;
83842;SDS011;73869;52.336;21.182;2023-11-21T07:05:26;1.70;;;1.60;;
83842;SDS011;73869;52.336;21.182;2023-11-21T07:07:59;2.00;;;1.90;;
83842;SDS011;73869;52.336;21.182;2023-11-21T07:10:29;1.92;;;1.83;;
83842;SDS011;73869;52.336;21.182;2023-11-21T07:12:56;1.98;;;1.88;;
83842;SDS011;73869;52.336;21.182;2023-11-21T07:15:23;1.88;;;1.77;;
83842;SDS011;73869;52.336;21.182;2023-11-21T07:17:52;1.90;;;1.80;;
83842;SDS011;73869;52.336;21.182;2023-11-21T07:20:19;1.52;;;1.42;;
83842;SDS011;73869;52.336;21.182;2023-11-21T07:22:46;1.42;;;1.40;;
83842;SDS011;73869;52.336;21.182;2023-11-21T07:25:13;1.67;;;1.58;;
83842;SDS011;73869;52.336;21.182;2023-11-21T07:27:40;1.48;;;1.38;;
83842;SDS011;73869;52.336;21.182;2023-11-21T07:30:07;1.67;;;1.58;;
83842;SDS011;73869;52.336;21.182;2023-11-21T07:32:35;1.40;;;1.40;;
83842;SDS011;73869;52.336;21.182;2023-11-21T07:35:04;1.55;;;1.50;;
83842;SDS011;73869;52.336;21.182;2023-11-21T07:37:32;1.30;;;1.30;;
83842;SDS011;73869;52.336;21.182;2023-11-21T07:39:59;1.70;;;1.60;;
83842;SDS011;73869;52.336;21.182;2023-11-21T07:42:26;1.40;;;1.40;;
83842;SDS011;73869;52.336;21.182;2023-11-21T07:44:52;1.58;;;1.48;;
83842;SDS011;73869;52.336;21.182;2023-11-21T07:47:19;1.40;;;1.40;;
83842;SDS011;73869;52.336;21.182;2023-11-21T07:49:46;1.35;;;1.33;;
83842;SDS011;73869;52.336;21.182;2023-11-21T07:52:14;1.65;;;1.55;;
83842;SDS011;73869;52.336;21.182;2023-11-21T07:54:41;1.50;;;1.45;;
83842;SDS011;73869;52.336;21.182;2023-11-21T07:57:08;1.80;;;1.70;;
83842;SDS011;73869;52.336;21.182;2023-11-21T07:59:38;1.60;;;1.50;;
83842;SDS011;73869;52.336;21.182;2023-11-21T08:02:06;1.30;;;1.30;;
83842;SDS011;73869;52.336;21.182;2023-11-21T08:04:32;1.73;;;1.63;;
83842;SDS011;73869;52.336;21.182;2023-11-21T08:07:00;1.52;;;1.42;;
83842;SDS011;73869;52.336;21.182;2023-11-21T08:09:30;1.45;;;1.45;;
83842;SDS011;73869;52.336;21.182;2023-11-21T08:11:58;1.40;;;1.40;;
83842;SDS011;73869;52.336;21.182;2023-11-21T08:14:25;1.48;;;1.38;;
83842;SDS011;73869;52.336;21.182;2023-11-21T08:16:52;1.15;;;1.15;;
83842;SDS011;73869;52.336;21.182;2023-11-21T08:19:22;1.52;;;1.50;;
83842;SDS011;73869;52.336;21.182;2023-11-21T08:21:50;1.65;;;1.55;;
83842;SDS011;73869;52.336;21.182;2023-11-21T08:24:20;1.63;;;1.52;;
83842;SDS011;73869;52.336;21.182;2023-11-21T08:26:48;1.60;;;1.50;;
83842;SDS011;73869;52.336;21.182;2023-11-21T08:29:16;1.70;;;1.60;;
83842;SDS011;73869;52.336;21.182;2023-11-21T08:31:44;1.73;;;1.63;;
83842;SDS011;73869;52.336;21.182;2023-11-21T08:34:12;1.70;;;1.60;;
83842;SDS011;73869;52.336;21.182;2023-11-21T08:36:41;1.60;;;1.50;;
83842;SDS011;73869;52.336;21.182;2023-11-21T08:39:08;1.42;;;1.38;;
83842;SDS011;73869;52.336;21.182;2023-11-21T08:41:35;1.38;;;1.35;;
83842;SDS011;73869;52.336;21.182;2023-11-21T08:44:04;1.73;;;1.63;;
83842;SDS011;73869;52.336;21.182;2023-11-21T08:46:32;1.35;;;1.35;;
83842;SDS011;73869;52.336;21.182;2023-11-21T08:49:00;1.58;;;1.48;;
83842;SDS011;73869;52.336;21.182;2023-11-21T08:51:27;1.58;;;1.52;;
83842;SDS011;73869;52.336;21.182;2023-11-21T08:53:54;1.52;;;1.50;;
83842;SDS011;73869;52.336;21.182;2023-11-21T08:56:24;1.70;;;1.60;;
83842;SDS011;73869;52.336;21.182;2023-11-21T08:58:51;1.48;;;1.38;;
83842;SDS011;73869;52.336;21.182;2023-11-21T09:01:19;1.70;;;1.60;;
83842;SDS011;73869;52.336;21.182;2023-11-21T09:03:46;1.67;;;1.58;;
83842;SDS011;73869;52.336;21.182;2023-11-21T09:06:13;1.75;;;1.65;;
83842;SDS011;73869;52.336;21.182;2023-11-21T09:08:40;1.25;;;1.25;;
83842;SDS011;73869;52.336;21.182;2023-11-21T09:11:07;1.50;;;1.50;;
83842;SDS011;73869;52.336;21.182;2023-11-21T09:13:34;1.20;;;1.20;;
83842;SDS011;73869;52.336;21.182;2023-11-21T09:16:01;1.60;;;1.50;;
83842;SDS011;73869;52.336;21.182;2023-11-21T09:18:29;1.52;;;1.42;;
83842;SDS011;73869;52.336;21.182;2023-11-21T09:20:56;1.33;;;1.33;;
83842;SDS011;73869;52.336;21.182;2023-11-21T09:23:23;1.42;;;1.42;;
83842;SDS011;73869;52.336;21.182;2023-11-21T09:25:50;1.40;;;1.40;;
83842;SDS011;73869;52.336;21.182;2023-11-21T09:28:19;1.50;;;1.40;;
83842;SDS011;73869;52.336;21.182;2023-11-21T09:30:47;1.40;;;1.40;;
83842;SDS011;73869;52.336;21.182;2023-11-21T09:33:16;1.70;;;1.60;;
83842;SDS011;73869;52.336;21.182;2023-11-21T09:35:44;2.20;;;2.00;;
83842;SDS011;73869;52.336;21.182;2023-11-21T09:38:11;2.20;;;2.00;;
83842;SDS011;73869;52.336;21.182;2023-11-21T09:40:38;2.30;;;2.10;;
83842;SDS011;73869;52.336;21.182;2023-11-21T09:43:05;3.03;;;2.80;;
83842;SDS011;73869;52.336;21.182;2023-11-21T09:45:41;3.10;;;2.80;;
83842;SDS011;73869;52.336;21.182;2023-11-21T09:48:12;3.10;;;2.90;;
83842;SDS011;73869;52.336;21.182;2023-11-21T09:50:40;2.63;;;2.42;;
83842;SDS011;73869;52.336;21.182;2023-11-21T09:53:12;2.70;;;2.50;;
83842;SDS011;73869;52.336;21.182;2023-11-21T09:55:43;2.30;;;2.10;;
83842;SDS011;73869;52.336;21.182;2023-11-21T09:58:11;2.20;;;2.00;;
83842;SDS011;73869;52.336;21.182;2023-11-21T10:00:39;2.08;;;1.90;;
83842;SDS011;73869;52.336;21.182;2023-11-21T10:03:07;1.80;;;1.70;;
83842;SDS011;73869;52.336;21.182;2023-11-21T10:05:34;2.05;;;1.92;;
83842;SDS011;73869;52.336;21.182;2023-11-21T10:08:01;1.73;;;1.63;;
83842;SDS011;73869;52.336;21.182;2023-11-21T10:10:32;1.70;;;1.60;;
83842;SDS011;73869;52.336;21.182;2023-11-21T10:13:01;1.60;;;1.50;;
83842;SDS011;73869;52.336;21.182;2023-11-21T10:15:31;1.80;;;1.70;;
83842;SDS011;73869;52.336;21.182;2023-11-21T10:18:01;1.70;;;1.60;;
83842;SDS011;73869;52.336;21.182;2023-11-21T10:20:31;1.60;;;1.50;;
83842;SDS011;73869;52.336;21.182;2023-11-21T10:22:59;1.70;;;1.60;;
83842;SDS011;73869;52.336;21.182;2023-11-21T10:25:28;1.90;;;1.80;;
83842;SDS011;73869;52.336;21.182;2023-11-21T10:27:59;1.60;;;1.50;;
83842;SDS011;73869;52.336;21.182;2023-11-21T10:30:32;1.70;;;1.60;;
83842;SDS011;73869;52.336;21.182;2023-11-21T10:33:02;1.80;;;1.70;;
83842;SDS011;73869;52.336;21.182;2023-11-21T10:35:42;1.80;;;1.70;;
83842;SDS011;73869;52.336;21.182;2023-11-21T10:38:16;1.90;;;1.80;;
83842;SDS011;73869;52.336;21.182;2023-11-21T10:40:46;1.80;;;1.70;;
83842;SDS011;73869;52.336;21.182;2023-11-21T10:43:15;1.70;;;1.60;;
83842;SDS011;73869;52.336;21.182;2023-11-21T10:45:43;1.60;;;1.50;;
83842;SDS011;73869;52.336;21.182;2023-11-21T10:48:12;1.40;;;1.40;;
83842;SDS011;73869;52.336;21.182;2023-11-21T10:50:41;1.70;;;1.60;;
83842;SDS011;73869;52.336;21.182;2023-11-21T10:53:09;1.63;;;1.52;;
83842;SDS011;73869;52.336;21.182;2023-11-21T10:55:37;1.63;;;1.52;;
83842;SDS011;73869;52.336;21.182;2023-11-21T10:58:04;1.67;;;1.58;;
83842;SDS011;73869;52.336;21.182;2023-11-21T11:00:33;2.22;;;2.10;;
83842;SDS011;73869;52.336;21.182;2023-11-21T11:03:00;2.90;;;2.70;;
83842;SDS011;73869;52.336;21.182;2023-11-21T11:07:56;2.88;;;2.67;;
83842;SDS011;73869;52.336;21.182;2023-11-21T11:10:26;2.40;;;2.20;;
83842;SDS011;73869;52.336;21.182;2023-11-21T11:12:54;3.40;;;3.20;;
83842;SDS011;73869;52.336;21.182;2023-11-21T11:15:22;3.03;;;2.83;;
83842;SDS011;73869;52.336;21.182;2023-11-21T11:17:51;3.10;;;2.90;;
83842;SDS011;73869;52.336;21.182;2023-11-21T11:20:22;3.28;;;3.08;;
83842;SDS011;73869;52.336;21.182;2023-11-21T11:22:54;3.20;;;3.00;;
83842;SDS011;73869;52.336;21.182;2023-11-21T11:25:38;3.15;;;2.95;;
83842;SDS011;73869;52.336;21.182;2023-11-21T11:28:18;2.80;;;2.60;;
83842;SDS011;73869;52.336;21.182;2023-11-21T11:30:50;2.30;;;2.10;;
83842;SDS011;73869;52.336;21.182;2023-11-21T11:33:33;1.90;;;1.80;;
83842;SDS011;73869;52.336;21.182;2023-11-21T11:36:06;3.10;;;2.90;;
83842;SDS011;73869;52.336;21.182;2023-11-21T11:41:04;2.85;;;2.65;;
83842;SDS011;73869;52.336;21.182;2023-11-21T11:43:32;3.20;;;3.00;;
83842;SDS011;73869;52.336;21.182;2023-11-21T11:46:05;2.47;;;2.28;;
83842;SDS011;73869;52.336;21.182;2023-11-21T11:48:36;2.42;;;2.22;;
83842;SDS011;73869;52.336;21.182;2023-11-21T11:51:05;2.05;;;1.95;;
83842;SDS011;73869;52.336;21.182;2023-11-21T11:53:37;2.20;;;2.00;;
83842;SDS011;73869;52.336;21.182;2023-11-21T11:56:19;2.30;;;2.10;;
83842;SDS011;73869;52.336;21.182;2023-11-21T11:58:51;2.85;;;2.65;;
83842;SDS011;73869;52.336;21.182;2023-11-21T12:01:18;2.50;;;2.30;;
83842;SDS011;73869;52.336;21.182;2023-11-21T12:03:50;2.72;;;2.53;;
83842;SDS011;73869;52.336;21.182;2023-11-21T12:06:56;2.78;;;2.58;;
83842;SDS011;73869;52.336;21.182;2023-11-21T12:09:25;4.47;;;4.18;;
83842;SDS011;73869;52.336;21.182;2023-11-21T12:11:53;2.22;;;2.13;;
83842;SDS011;73869;52.336;21.182;2023-11-21T12:14:21;1.83;;;1.73;;
83842;SDS011;73869;52.336;21.182;2023-11-21T12:16:49;1.73;;;1.63;;
83842;SDS011;73869;52.336;21.182;2023-11-21T12:19:18;1.73;;;1.63;;
83842;SDS011;73869;52.336;21.182;2023-11-21T12:21:47;1.80;;;1.70;;
83842;SDS011;73869;52.336;21.182;2023-11-21T12:24:15;2.08;;;1.88;;
83842;SDS011;73869;52.336;21.182;2023-11-21T12:26:42;1.90;;;1.80;;
83842;SDS011;73869;52.336;21.182;2023-11-21T12:29:10;1.90;;;1.80;;
83842;SDS011;73869;52.336;21.182;2023-11-21T12:31:37;1.83;;;1.73;;
83842;SDS011;73869;52.336;21.182;2023-11-21T12:34:05;1.63;;;1.52;;
83842;SDS011;73869;52.336;21.182;2023-11-21T12:36:33;1.80;;;1.70;;
83842;SDS011;73869;52.336;21.182;2023-11-21T12:39:01;1.67;;;1.58;;
83842;SDS011;73869;52.336;21.182;2023-11-21T12:41:29;1.60;;;1.50;;
83842;SDS011;73869;52.336;21.182;2023-11-21T12:43:56;1.58;;;1.50;;
83842;SDS011;73869;52.336;21.182;2023-11-21T12:46:24;1.70;;;1.60;;
83842;SDS011;73869;52.336;21.182;2023-11-21T12:48:54;1.77;;;1.67;;
83842;SDS011;73869;52.336;21.182;2023-11-21T12:51:21;1.73;;;1.63;;
83842;SDS011;73869;52.336;21.182;2023-11-21T12:53:50;1.77;;;1.67;;
83842;SDS011;73869;52.336;21.182;2023-11-21T12:56:18;2.15;;;2.00;;
83842;SDS011;73869;52.336;21.182;2023-11-21T12:58:48;2.10;;;2.00;;
83842;SDS011;73869;52.336;21.182;2023-11-21T13:01:17;1.73;;;1.63;;
83842;SDS011;73869;52.336;21.182;2023-11-21T13:03:47;1.60;;;1.50;;
83842;SDS011;73869;52.336;21.182;2023-11-21T13:06:16;1.52;;;1.45;;
83842;SDS011;73869;52.336;21.182;2023-11-21T13:08:51;1.40;;;1.40;;
83842;SDS011;73869;52.336;21.182;2023-11-21T13:11:19;1.60;;;1.50;;
83842;SDS011;73869;52.336;21.182;2023-11-21T13:13:51;1.70;;;1.60;;
83842;SDS011;73869;52.336;21.182;2023-11-21T13:16:18;1.70;;;1.60;;
83842;SDS011;73869;52.336;21.182;2023-11-21T13:18:46;1.70;;;1.60;;
83842;SDS011;73869;52.336;21.182;2023-11-21T13:21:12;1.80;;;1.70;;
83842;SDS011;73869;52.336;21.182;2023-11-21T13:23:40;1.88;;;1.77;;
83842;SDS011;73869;52.336;21.182;2023-11-21T13:26:10;1.73;;;1.63;;
83842;SDS011;73869;52.336;21.182;2023-11-21T13:28:37;2.00;;;1.90;;
83842;SDS011;73869;52.336;21.182;2023-11-21T13:31:06;1.90;;;1.80;;
83842;SDS011;73869;52.336;21.182;2023-11-21T13:33:47;1.83;;;1.73;;
83842;SDS011;73869;52.336;21.182;2023-11-21T13:36:20;1.83;;;1.70;;
83842;SDS011;73869;52.336;21.182;2023-11-21T13:38:49;1.90;;;1.80;;
83842;SDS011;73869;52.336;21.182;2023-11-21T13:41:17;2.00;;;1.90;;
83842;SDS011;73869;52.336;21.182;2023-11-21T13:43:45;2.05;;;1.95;;
83842;SDS011;73869;52.336;21.182;2023-11-21T13:46:18;2.00;;;1.90;;
83842;SDS011;73869;52.336;21.182;2023-11-21T13:48:47;2.90;;;2.70;;
83842;SDS011;73869;52.336;21.182;2023-11-21T13:51:16;2.90;;;2.70;;
83842;SDS011;73869;52.336;21.182;2023-11-21T13:53:43;2.58;;;2.38;;
83842;SDS011;73869;52.336;21.182;2023-11-21T13:56:12;2.13;;;2.03;;
83842;SDS011;73869;52.336;21.182;2023-11-21T13:58:46;2.42;;;2.22;;
83842;SDS011;73869;52.336;21.182;2023-11-21T14:01:16;2.20;;;2.10;;
83842;SDS011;73869;52.336;21.182;2023-11-21T14:04:06;2.13;;;2.03;;
83842;SDS011;73869;52.336;21.182;2023-11-21T14:06:44;2.00;;;1.90;;
83842;SDS011;73869;52.336;21.182;2023-11-21T14:09:13;2.00;;;1.90;;
83842;SDS011;73869;52.336;21.182;2023-11-21T14:11:49;2.00;;;1.90;;
83842;SDS011;73869;52.336;21.182;2023-11-21T14:14:19;1.90;;;1.80;;
83842;SDS011;73869;52.336;21.182;2023-11-21T14:16:47;1.85;;;1.75;;
83842;SDS011;73869;52.336;21.182;2023-11-21T14:19:13;1.85;;;1.75;;
83842;SDS011;73869;52.336;21.182;2023-11-21T14:21:42;1.88;;;1.77;;
83842;SDS011;73869;52.336;21.182;2023-11-21T14:24:10;1.85;;;1.75;;
83842;SDS011;73869;52.336;21.182;2023-11-21T14:26:39;1.80;;;1.70;;
83842;SDS011;73869;52.336;21.182;2023-11-21T14:29:07;1.83;;;1.70;;
83842;SDS011;73869;52.336;21.182;2023-11-21T14:31:39;1.90;;;1.80;;
83842;SDS011;73869;52.336;21.182;2023-11-21T14:34:06;1.80;;;1.70;;
83842;SDS011;73869;52.336;21.182;2023-11-21T14:36:32;1.80;;;1.70;;
83842;SDS011;73869;52.336;21.182;2023-11-21T14:38:59;1.50;;;1.40;;
83842;SDS011;73869;52.336;21.182;2023-11-21T14:41:26;1.60;;;1.50;;
83842;SDS011;73869;52.336;21.182;2023-11-21T14:43:54;2.03;;;1.92;;
83842;SDS011;73869;52.336;21.182;2023-11-21T14:46:22;1.95;;;1.85;;